KAXV/AXV METAR and TAF weather

Enter ICAO airport designator
Station Type Date Time Source
KAXV METAR 2022/01/26 20:35 UTC NOAA

KAXV 262035Z AUTO 00000KT 10SM CLR M10/M15 A3040 RMK AO2


Station Type Date Time Source
KAXV Decoded METAR 2022/01/26 20:35 UTC NOAA

Station name not available
Jan 26, 2022 - 03:35 PM EST / 2022.01.26 2035 UTC
Wind: Calm:0
Visibility: 10 mile(s):0
Sky conditions: clear
Temperature: 14 F (-10 C)
Dew Point: 5 F (-15 C)
Relative Humidity: 66%
Pressure (altimeter): 30.4 in. Hg (1029 hPa)
ob: KAXV 262035Z AUTO 00000KT 10SM CLR M10/M15 A3040 RMK AO2
cycle: 20

Station Type Date Time Source
KAXV TAF UTC NOAA

Error!

Example: see airport list